createdAt,value
2022-10-30T00:01:41.599Z,76.11
2022-10-30T00:04:27.486Z,75.82
2022-10-30T00:07:12.958Z,75.65
2022-10-30T00:09:58.139Z,75.48
2022-10-30T00:12:44.066Z,75.46
2022-10-30T00:15:29.472Z,75.25
2022-10-30T00:18:15.126Z,75.36
2022-10-30T00:21:14.574Z,75.34
2022-10-30T00:24:00.027Z,75.20
2022-10-30T00:26:45.476Z,75.27
2022-10-30T00:29:30.775Z,75.29
2022-10-30T00:32:17.150Z,75.25
2022-10-30T00:35:02.875Z,75.29
2022-10-30T00:37:49.901Z,75.30
2022-10-30T00:40:35.982Z,75.56
2022-10-30T00:43:36.676Z,75.77
2022-10-30T00:46:30.966Z,75.91
2022-10-30T00:49:17.033Z,76.10
2022-10-30T00:52:08.257Z,76.09
2022-10-30T00:54:56.514Z,76.02
2022-10-30T00:57:42.907Z,76.24
2022-10-30T01:00:30.125Z,76.35
2022-10-30T01:03:16.177Z,76.18
2022-10-30T01:06:05.037Z,76.37
2022-10-30T01:08:56.929Z,76.20
2022-10-30T01:11:45.898Z,76.52
2022-10-30T01:14:34.008Z,76.46
2022-10-30T01:17:29.216Z,76.23
2022-10-30T01:20:49.783Z,76.42
2022-10-30T01:24:02.442Z,76.45
2022-10-30T01:27:12.584Z,76.53
2022-10-30T01:30:13.276Z,76.99
2022-10-30T01:33:06.512Z,76.08
2022-10-30T01:36:04.964Z,76.40
2022-10-30T01:38:57.224Z,76.36
2022-10-30T01:41:42.736Z,76.47
2022-10-30T01:44:31.983Z,76.73
2022-10-30T01:47:45.602Z,76.60
2022-10-30T01:50:57.704Z,76.51
2022-10-30T01:53:50.990Z,76.55
2022-10-30T01:56:44.005Z,76.58
2022-10-30T01:59:39.197Z,76.76
2022-10-30T02:02:25.768Z,76.36
2022-10-30T02:05:20.535Z,76.33
2022-10-30T02:08:06.587Z,76.48
2022-10-30T02:10:56.384Z,76.28
2022-10-30T02:13:58.716Z,76.30
2022-10-30T02:16:48.492Z,76.33
2022-10-30T02:19:36.771Z,76.44
2022-10-30T02:22:22.432Z,76.29
2022-10-30T02:25:08.559Z,76.57
2022-10-30T02:27:53.983Z,76.89
2022-10-30T02:30:40.985Z,76.78
2022-10-30T02:33:26.185Z,76.89
2022-10-30T02:36:11.669Z,76.92
2022-10-30T02:38:57.155Z,76.89
2022-10-30T02:41:42.614Z,77.13
2022-10-30T02:44:30.606Z,77.45
2022-10-30T02:47:15.949Z,77.87
2022-10-30T02:50:01.307Z,77.78
2022-10-30T02:52:46.690Z,77.81
2022-10-30T02:55:32.370Z,77.58
2022-10-30T02:58:17.793Z,77.85
2022-10-30T03:01:09.996Z,77.51
2022-10-30T03:03:55.813Z,77.79
2022-10-30T03:06:41.517Z,77.46
2022-10-30T03:09:26.912Z,77.15
2022-10-30T03:12:12.414Z,77.35
2022-10-30T03:14:57.804Z,77.13
2022-10-30T03:17:43.161Z,77.31
2022-10-30T03:20:29.952Z,77.20
2022-10-30T03:23:15.342Z,77.34
2022-10-30T03:26:03.071Z,77.26
2022-10-30T03:28:50.949Z,77.09
2022-10-30T03:31:36.783Z,77.14
2022-10-30T03:34:35.510Z,77.03
2022-10-30T03:37:24.548Z,77.25
2022-10-30T03:40:10.557Z,77.43
2022-10-30T03:42:57.225Z,77.00
2022-10-30T03:45:48.610Z,77.20
2022-10-30T03:48:35.228Z,77.22
2022-10-30T03:51:20.824Z,77.55
2022-10-30T03:54:06.080Z,77.62
2022-10-30T03:56:52.282Z,78.07
2022-10-30T03:59:38.573Z,77.97
2022-10-30T04:02:49.067Z,78.14
2022-10-30T04:05:36.442Z,77.91
2022-10-30T04:08:22.343Z,77.97
2022-10-30T04:11:11.070Z,78.11
2022-10-30T04:13:57.231Z,78.09
2022-10-30T04:16:42.648Z,78.01
2022-10-30T04:19:28.608Z,78.02
2022-10-30T04:22:14.337Z,77.92
2022-10-30T04:25:00.106Z,77.59
2022-10-30T04:27:47.088Z,77.76
2022-10-30T04:30:35.369Z,77.63
2022-10-30T04:33:21.490Z,77.61
2022-10-30T04:36:08.322Z,77.92
2022-10-30T04:38:53.438Z,77.86
2022-10-30T04:41:41.248Z,77.55
2022-10-30T04:44:33.759Z,77.07
2022-10-30T04:47:19.374Z,77.34
2022-10-30T04:50:05.546Z,77.34
2022-10-30T04:52:59.563Z,77.73
2022-10-30T04:55:45.785Z,77.63
2022-10-30T04:58:31.261Z,78.08
2022-10-30T05:01:22.829Z,78.42
2022-10-30T05:04:09.214Z,78.70
2022-10-30T05:06:54.709Z,78.55
2022-10-30T05:09:39.990Z,78.84
2022-10-30T05:12:25.886Z,79.11
2022-10-30T05:15:14.503Z,79.16
2022-10-30T05:18:00.724Z,79.24
2022-10-30T05:20:47.166Z,79.16
2022-10-30T05:23:32.645Z,79.43
2022-10-30T05:26:18.866Z,79.26
2022-10-30T05:29:05.574Z,79.19
2022-10-30T05:31:51.635Z,79.41
2022-10-30T05:34:51.620Z,79.39
2022-10-30T05:37:41.557Z,79.36
2022-10-30T05:40:27.997Z,79.43
2022-10-30T05:43:13.310Z,79.61
2022-10-30T05:45:59.206Z,79.53
2022-10-30T05:48:44.583Z,79.80
2022-10-30T05:51:31.799Z,79.96
2022-10-30T05:54:23.257Z,80.00
2022-10-30T05:57:24.260Z,80.14
2022-10-30T06:00:12.728Z,80.18
2022-10-30T06:03:02.414Z,80.34
2022-10-30T06:05:50.568Z,80.36
2022-10-30T06:08:36.935Z,80.46
2022-10-30T06:11:44.117Z,80.26
2022-10-30T06:14:32.717Z,80.35
2022-10-30T06:17:18.250Z,80.30
2022-10-30T06:20:19.989Z,80.54
2022-10-30T06:23:45.334Z,80.51
2022-10-30T06:26:51.525Z,80.60
2022-10-30T06:29:36.927Z,80.34
2022-10-30T06:32:22.872Z,80.30
2022-10-30T06:35:09.539Z,80.47
2022-10-30T06:37:56.231Z,80.36
2022-10-30T06:40:43.561Z,80.47
2022-10-30T06:43:48.062Z,80.28
2022-10-30T06:46:43.355Z,80.01
2022-10-30T06:49:29.263Z,80.12
2022-10-30T06:52:14.761Z,79.93
2022-10-30T06:55:02.735Z,80.10
2022-10-30T06:58:03.881Z,80.11
2022-10-30T07:01:06.830Z,80.01
2022-10-30T07:04:12.126Z,79.99
2022-10-30T07:06:58.078Z,79.99
2022-10-30T07:09:43.879Z,80.03
2022-10-30T07:12:30.397Z,80.00
2022-10-30T07:15:20.123Z,79.80
2022-10-30T07:18:20.523Z,80.01
2022-10-30T07:21:07.490Z,79.62
2022-10-30T07:23:52.998Z,79.80
2022-10-30T07:26:46.774Z,79.92
2022-10-30T07:29:49.833Z,79.98
2022-10-30T07:33:07.928Z,80.28
2022-10-30T07:36:15.776Z,80.46
2022-10-30T07:39:19.295Z,80.54
2022-10-30T07:42:28.160Z,80.58
2022-10-30T07:45:33.043Z,80.44
2022-10-30T07:48:39.065Z,81.17
2022-10-30T07:51:47.698Z,80.82
2022-10-30T07:54:34.327Z,80.85
2022-10-30T07:57:38.182Z,80.78
2022-10-30T08:00:42.191Z,81.09
2022-10-30T08:03:41.646Z,81.08
2022-10-30T08:06:35.560Z,80.92
2022-10-30T08:09:21.441Z,80.48
2022-10-30T08:12:07.663Z,80.19
2022-10-30T08:14:53.910Z,80.33
2022-10-30T08:17:48.123Z,80.22
2022-10-30T08:20:33.950Z,80.12
2022-10-30T08:23:19.913Z,80.05
2022-10-30T08:26:05.803Z,79.64
2022-10-30T08:28:55.698Z,80.02
2022-10-30T08:31:44.354Z,79.92
2022-10-30T08:34:42.364Z,80.04
2022-10-30T08:37:27.870Z,79.67
2022-10-30T08:40:13.723Z,79.15
2022-10-30T08:43:08.472Z,79.19
2022-10-30T08:45:58.130Z,78.88
2022-10-30T08:48:44.406Z,78.96
2022-10-30T08:51:35.308Z,78.67
2022-10-30T08:54:20.900Z,77.82
2022-10-30T08:57:06.496Z,77.78
2022-10-30T08:59:52.288Z,77.64
2022-10-30T09:02:58.354Z,77.07
2022-10-30T09:06:02.918Z,75.69
2022-10-30T09:09:23.715Z,74.69
2022-10-30T09:12:12.410Z,73.78
2022-10-30T09:15:02.116Z,73.17
2022-10-30T09:17:59.554Z,73.91
2022-10-30T09:20:49.439Z,73.68
2022-10-30T09:23:35.307Z,74.40
2022-10-30T09:26:41.188Z,74.87
2022-10-30T09:29:39.869Z,75.52
2022-10-30T09:32:39.694Z,75.76
2022-10-30T09:35:33.372Z,75.84
2022-10-30T09:38:18.960Z,76.00
2022-10-30T09:41:23.409Z,76.41
2022-10-30T09:44:38.926Z,76.74
2022-10-30T09:48:03.770Z,76.61
2022-10-30T09:51:27.954Z,77.84
2022-10-30T09:54:21.284Z,77.51
2022-10-30T09:57:22.206Z,78.11
2022-10-30T10:00:15.447Z,77.71
2022-10-30T10:03:31.253Z,77.82
2022-10-30T10:06:39.780Z,77.47
2022-10-30T10:09:47.985Z,77.25
2022-10-30T10:12:45.292Z,77.39
2022-10-30T10:15:44.585Z,77.45
2022-10-30T10:18:37.894Z,77.22
2022-10-30T10:21:26.285Z,76.96
2022-10-30T10:24:23.281Z,76.82
2022-10-30T10:27:28.052Z,76.35
2022-10-30T10:30:52.239Z,76.54
2022-10-30T10:33:43.651Z,75.98
2022-10-30T10:37:04.549Z,75.39
2022-10-30T10:40:16.665Z,74.78
2022-10-30T10:43:02.191Z,75.37
2022-10-30T10:45:57.858Z,74.71
2022-10-30T10:49:02.785Z,74.32
2022-10-30T10:51:54.420Z,74.71
2022-10-30T10:54:46.135Z,74.65
2022-10-30T10:57:40.642Z,74.19
2022-10-30T11:00:29.167Z,73.87
2022-10-30T11:03:20.640Z,74.37
2022-10-30T11:06:21.442Z,72.88
2022-10-30T11:09:17.093Z,72.23
2022-10-30T11:12:04.199Z,71.70
2022-10-30T11:14:49.892Z,72.33
2022-10-30T11:17:53.734Z,71.27
2022-10-30T11:20:45.566Z,71.53
2022-10-30T11:24:00.597Z,71.47
2022-10-30T11:26:46.741Z,71.76
2022-10-30T11:29:32.681Z,72.72
2022-10-30T11:32:22.987Z,73.29
2022-10-30T11:35:08.867Z,74.10
2022-10-30T11:38:19.108Z,74.65
2022-10-30T11:41:05.191Z,75.14
2022-10-30T11:43:51.228Z,75.17
2022-10-30T11:46:37.177Z,75.79
2022-10-30T11:49:35.693Z,75.90
2022-10-30T11:52:23.931Z,76.31
2022-10-30T11:55:35.093Z,76.41
2022-10-30T11:58:27.790Z,76.25
2022-10-30T12:01:22.290Z,76.01
2022-10-30T12:04:22.326Z,76.02
2022-10-30T12:07:23.147Z,76.19
2022-10-30T12:10:24.720Z,76.05
2022-10-30T12:13:19.198Z,75.57
2022-10-30T12:16:14.404Z,75.93
2022-10-30T12:19:07.161Z,75.64
2022-10-30T12:21:54.726Z,75.79
2022-10-30T12:24:44.124Z,75.29
2022-10-30T12:27:34.439Z,75.37
2022-10-30T12:30:21.206Z,75.12
2022-10-30T12:33:14.424Z,75.19
2022-10-30T12:36:03.906Z,75.06
2022-10-30T12:38:54.589Z,74.35
2022-10-30T12:41:45.758Z,74.05
2022-10-30T12:44:40.204Z,74.15
2022-10-30T12:47:41.238Z,73.76
2022-10-30T12:50:32.972Z,73.83
2022-10-30T12:53:33.763Z,74.40
2022-10-30T12:56:28.177Z,73.82
2022-10-30T12:59:39.502Z,74.19
2022-10-30T13:02:53.444Z,74.21
2022-10-30T13:05:48.168Z,73.90
2022-10-30T13:08:38.696Z,74.04
2022-10-30T13:11:37.912Z,73.87
2022-10-30T13:14:35.437Z,73.51
2022-10-30T13:17:21.661Z,73.46
2022-10-30T13:20:15.513Z,73.29
2022-10-30T13:23:11.888Z,73.37
2022-10-30T13:26:13.604Z,73.77
2022-10-30T13:29:44.524Z,73.52
2022-10-30T13:32:38.868Z,74.10
2022-10-30T13:35:38.957Z,74.25
2022-10-30T13:38:46.316Z,74.87
2022-10-30T13:41:53.203Z,74.75
2022-10-30T13:45:00.598Z,74.96
2022-10-30T13:47:49.195Z,74.81
2022-10-30T13:50:40.831Z,74.96
2022-10-30T13:53:30.773Z,74.71
2022-10-30T13:56:18.930Z,74.36
2022-10-30T13:59:20.630Z,73.66
2022-10-30T14:02:28.332Z,73.66
2022-10-30T14:05:32.680Z,73.78
2022-10-30T14:08:38.874Z,74.01
2022-10-30T14:11:24.883Z,74.22
2022-10-30T14:14:13.436Z,74.42
2022-10-30T14:17:17.973Z,74.70
2022-10-30T14:20:12.545Z,74.95
2022-10-30T14:23:23.045Z,74.80
2022-10-30T14:26:11.621Z,74.49
2022-10-30T14:28:57.419Z,74.84
2022-10-30T14:31:42.913Z,75.01
2022-10-30T14:34:50.107Z,75.03
2022-10-30T14:37:38.751Z,75.05
2022-10-30T14:40:53.573Z,75.26
2022-10-30T14:43:51.471Z,75.14
2022-10-30T14:46:42.956Z,75.49
2022-10-30T14:49:38.344Z,75.88
2022-10-30T14:52:30.308Z,75.52
2022-10-30T14:55:31.800Z,75.41
2022-10-30T14:58:27.139Z,75.60
2022-10-30T15:01:31.943Z,75.68
2022-10-30T15:04:22.274Z,75.54
2022-10-30T15:07:27.085Z,75.36
2022-10-30T15:10:33.467Z,75.26
2022-10-30T15:13:23.079Z,75.17
2022-10-30T15:16:09.315Z,75.31
2022-10-30T15:19:06.174Z,75.06
2022-10-30T15:21:54.820Z,74.92
2022-10-30T15:24:41.487Z,75.26
2022-10-30T15:27:27.764Z,74.82
2022-10-30T15:30:19.233Z,75.13
2022-10-30T15:33:21.862Z,74.75
2022-10-30T15:36:41.716Z,74.70
2022-10-30T15:39:27.056Z,74.32
2022-10-30T15:42:12.940Z,74.50
2022-10-30T15:44:58.727Z,74.80
2022-10-30T15:47:52.554Z,74.20
2022-10-30T15:50:43.843Z,74.26
2022-10-30T15:53:44.376Z,74.03
2022-10-30T15:56:33.876Z,73.91
2022-10-30T15:59:24.038Z,73.80
2022-10-30T16:02:23.856Z,74.08
2022-10-30T16:05:21.137Z,74.15
2022-10-30T16:08:19.106Z,74.79
2022-10-30T16:11:05.331Z,75.05
2022-10-30T16:13:51.898Z,75.07
2022-10-30T16:16:37.910Z,74.74
2022-10-30T16:19:31.693Z,74.55
2022-10-30T16:22:26.175Z,74.11
2022-10-30T16:25:13.017Z,74.14
2022-10-30T16:27:58.845Z,73.99
2022-10-30T16:30:44.557Z,74.59
2022-10-30T16:33:32.185Z,74.49
2022-10-30T16:36:19.251Z,74.57
2022-10-30T16:39:05.000Z,74.77
2022-10-30T16:41:50.289Z,74.43
2022-10-30T16:44:36.249Z,74.38
2022-10-30T16:47:25.777Z,74.40
2022-10-30T16:50:15.593Z,74.00
2022-10-30T16:53:17.186Z,74.83
2022-10-30T16:56:03.193Z,75.05
2022-10-30T16:58:49.538Z,75.13
2022-10-30T17:01:35.570Z,75.03
2022-10-30T17:04:21.508Z,75.19
2022-10-30T17:07:18.598Z,75.48
2022-10-30T17:10:24.716Z,75.45
2022-10-30T17:13:34.880Z,75.95
2022-10-30T17:16:26.459Z,76.43
2022-10-30T17:19:30.032Z,76.62
2022-10-30T17:22:20.102Z,76.81
2022-10-30T17:25:30.442Z,77.10
2022-10-30T17:28:29.809Z,77.54
2022-10-30T17:31:18.248Z,77.87
2022-10-30T17:34:13.315Z,78.35
2022-10-30T17:36:59.840Z,78.08
2022-10-30T17:39:45.364Z,78.10
2022-10-30T17:42:30.837Z,78.13
2022-10-30T17:45:17.238Z,77.65
2022-10-30T17:48:02.903Z,77.91
2022-10-30T17:50:48.635Z,77.98
2022-10-30T17:53:34.222Z,77.98
2022-10-30T17:56:24.147Z,78.26
2022-10-30T17:59:09.394Z,78.29
2022-10-30T18:01:54.784Z,78.37
2022-10-30T18:04:42.391Z,78.56
2022-10-30T18:07:27.968Z,78.77
2022-10-30T18:10:13.679Z,78.96
2022-10-30T18:12:59.643Z,79.36
2022-10-30T18:15:51.833Z,79.07
2022-10-30T18:18:37.910Z,79.17
2022-10-30T18:21:27.378Z,79.12
2022-10-30T18:24:13.110Z,79.42
2022-10-30T18:26:59.180Z,79.65
2022-10-30T18:29:45.086Z,79.42
2022-10-30T18:32:30.345Z,79.51
2022-10-30T18:35:25.772Z,79.42
2022-10-30T18:38:12.490Z,79.33
2022-10-30T18:40:58.335Z,79.15
2022-10-30T18:43:46.785Z,79.01
2022-10-30T18:46:34.108Z,78.84
2022-10-30T18:49:24.523Z,78.44
2022-10-30T18:52:10.980Z,78.21
2022-10-30T18:54:56.525Z,78.14
2022-10-30T18:57:41.980Z,77.99
2022-10-30T19:00:51.166Z,77.86
2022-10-30T19:03:35.486Z,77.95
2022-10-30T19:06:24.215Z,77.90
2022-10-30T19:09:09.923Z,78.25
2022-10-30T19:11:55.571Z,78.52
2022-10-30T19:14:40.863Z,78.18
2022-10-30T19:17:26.486Z,78.34
2022-10-30T19:20:13.197Z,78.21
2022-10-30T19:22:59.808Z,77.95
2022-10-30T19:25:46.472Z,77.83
2022-10-30T19:28:32.794Z,77.99
2022-10-30T19:31:19.636Z,77.91
2022-10-30T19:34:05.454Z,77.77
2022-10-30T19:36:50.853Z,77.56
2022-10-30T19:39:36.007Z,77.52
2022-10-30T19:42:22.114Z,77.25
2022-10-30T19:45:08.078Z,77.17
2022-10-30T19:47:56.333Z,76.89
2022-10-30T19:50:43.607Z,76.95
2022-10-30T19:53:28.666Z,77.11
2022-10-30T19:56:15.271Z,76.81
2022-10-30T19:59:00.906Z,76.85
2022-10-30T20:01:46.358Z,76.56
2022-10-30T20:04:32.578Z,76.35
2022-10-30T20:07:18.141Z,76.46
2022-10-30T20:10:13.714Z,76.66
2022-10-30T20:12:59.571Z,77.05
2022-10-30T20:15:45.099Z,77.29
2022-10-30T20:18:32.577Z,77.24
2022-10-30T20:21:19.713Z,76.98
2022-10-30T20:24:05.927Z,76.85
2022-10-30T20:26:52.983Z,76.69
2022-10-30T20:29:40.608Z,76.95
2022-10-30T20:32:26.105Z,77.18
2022-10-30T20:35:13.596Z,77.08
2022-10-30T20:38:02.502Z,77.37
2022-10-30T20:40:49.457Z,78.17
2022-10-30T20:43:37.416Z,78.09
2022-10-30T20:46:22.563Z,77.73
2022-10-30T20:49:17.100Z,77.69
2022-10-30T20:52:02.710Z,77.75
2022-10-30T20:54:48.150Z,78.30
2022-10-30T20:57:33.571Z,78.61
2022-10-30T21:00:19.288Z,78.51
2022-10-30T21:03:06.548Z,77.87
2022-10-30T21:06:00.625Z,77.69
2022-10-30T21:08:46.507Z,78.76
2022-10-30T21:11:32.096Z,79.54
2022-10-30T21:14:17.780Z,80.34
2022-10-30T21:17:03.102Z,79.94
2022-10-30T21:19:48.502Z,79.99
2022-10-30T21:22:34.039Z,80.43
2022-10-30T21:25:19.316Z,80.98
2022-10-30T21:28:04.853Z,81.39
2022-10-30T21:30:50.390Z,81.62
2022-10-30T21:33:37.147Z,82.12
2022-10-30T21:36:23.486Z,82.18
2022-10-30T21:39:09.307Z,82.29
2022-10-30T21:41:54.747Z,82.37
2022-10-30T21:44:40.028Z,82.67
2022-10-30T21:47:25.704Z,82.81
2022-10-30T21:50:12.678Z,83.19
2022-10-30T21:53:00.557Z,82.97
2022-10-30T21:55:46.155Z,83.20
2022-10-30T21:58:31.706Z,82.98
2022-10-30T22:01:23.019Z,82.80
2022-10-30T22:04:10.546Z,82.66
2022-10-30T22:06:56.340Z,82.99
2022-10-30T22:09:41.637Z,83.05
2022-10-30T22:12:27.009Z,82.67
2022-10-30T22:15:12.395Z,82.92
2022-10-30T22:17:58.611Z,82.39
2022-10-30T22:20:44.371Z,82.25
2022-10-30T22:23:30.449Z,81.83
2022-10-30T22:26:21.544Z,81.67
2022-10-30T22:29:07.089Z,82.20
2022-10-30T22:31:52.732Z,81.47
2022-10-30T22:34:38.613Z,81.06
2022-10-30T22:37:24.868Z,81.06
2022-10-30T22:40:10.846Z,80.75
2022-10-30T22:42:56.811Z,80.68
2022-10-30T22:45:42.565Z,80.80
2022-10-30T22:48:27.972Z,81.25
2022-10-30T22:51:16.662Z,81.41
2022-10-30T22:54:04.607Z,81.66
2022-10-30T22:56:50.124Z,81.68
2022-10-30T22:59:35.421Z,81.18
2022-10-30T23:02:21.005Z,81.12
2022-10-30T23:05:06.421Z,81.44
2022-10-30T23:07:52.542Z,81.87
2022-10-30T23:10:37.900Z,82.24
2022-10-30T23:13:23.506Z,82.23
2022-10-30T23:16:14.079Z,82.60
2022-10-30T23:19:00.789Z,83.21
2022-10-30T23:21:46.489Z,83.42
2022-10-30T23:24:31.832Z,83.54
2022-10-30T23:27:17.279Z,83.80
2022-10-30T23:30:02.701Z,84.01
2022-10-30T23:32:48.433Z,83.74
2022-10-30T23:35:33.735Z,83.65
2022-10-30T23:38:19.166Z,83.07
2022-10-30T23:41:04.437Z,82.51
2022-10-30T23:43:57.227Z,81.97
2022-10-30T23:46:43.188Z,81.83
2022-10-30T23:49:33.170Z,81.02
2022-10-30T23:52:19.957Z,81.25
2022-10-30T23:55:05.852Z,81.03
2022-10-30T23:57:51.211Z,80.66
